sensor_id;sensor_type;location;lat;lon;timestamp;temperature;humidity
31038;DHT22;17702;47.590;7.666;2023-06-26T00:00:48;20.80;99.10
31038;DHT22;17702;47.590;7.666;2023-06-26T00:03:14;20.80;99.10
31038;DHT22;17702;47.590;7.666;2023-06-26T00:05:41;20.80;99.10
31038;DHT22;17702;47.590;7.666;2023-06-26T00:08:10;20.80;98.70
31038;DHT22;17702;47.590;7.666;2023-06-26T00:10:35;20.80;98.70
31038;DHT22;17702;47.590;7.666;2023-06-26T00:13:01;20.80;99.10
31038;DHT22;17702;47.590;7.666;2023-06-26T00:15:27;20.70;99.50
31038;DHT22;17702;47.590;7.666;2023-06-26T00:17:57;20.60;99.60
31038;DHT22;17702;47.590;7.666;2023-06-26T00:20:23;20.60;99.20
31038;DHT22;17702;47.590;7.666;2023-06-26T00:22:48;20.60;99.10
31038;DHT22;17702;47.590;7.666;2023-06-26T00:25:15;20.70;99.00
31038;DHT22;17702;47.590;7.666;2023-06-26T00:27:41;20.60;99.00
31038;DHT22;17702;47.590;7.666;2023-06-26T00:30:08;20.60;98.90
31038;DHT22;17702;47.590;7.666;2023-06-26T00:32:34;20.60;99.00
31038;DHT22;17702;47.590;7.666;2023-06-26T00:34:59;20.50;99.60
31038;DHT22;17702;47.590;7.666;2023-06-26T00:37:25;20.60;98.90
31038;DHT22;17702;47.590;7.666;2023-06-26T00:39:50;20.60;98.60
31038;DHT22;17702;47.590;7.666;2023-06-26T00:42:16;20.60;98.60
31038;DHT22;17702;47.590;7.666;2023-06-26T00:44:41;20.60;98.70
31038;DHT22;17702;47.590;7.666;2023-06-26T00:47:14;20.50;98.90
31038;DHT22;17702;47.590;7.666;2023-06-26T00:49:39;20.40;99.10
31038;DHT22;17702;47.590;7.666;2023-06-26T00:52:06;20.40;99.30
31038;DHT22;17702;47.590;7.666;2023-06-26T00:54:31;20.40;99.30
31038;DHT22;17702;47.590;7.666;2023-06-26T00:56:57;20.30;99.90
31038;DHT22;17702;47.590;7.666;2023-06-26T00:59:23;20.20;99.40
31038;DHT22;17702;47.590;7.666;2023-06-26T01:01:48;20.20;99.80
31038;DHT22;17702;47.590;7.666;2023-06-26T01:04:14;20.10;99.90
31038;DHT22;17702;47.590;7.666;2023-06-26T01:06:47;20.10;99.90
31038;DHT22;17702;47.590;7.666;2023-06-26T01:09:21;20.20;99.40
31038;DHT22;17702;47.590;7.666;2023-06-26T01:11:47;20.20;99.60
31038;DHT22;17702;47.590;7.666;2023-06-26T01:14:13;20.30;99.20
31038;DHT22;17702;47.590;7.666;2023-06-26T01:16:39;20.20;99.30
31038;DHT22;17702;47.590;7.666;2023-06-26T01:19:10;20.20;99.80
31038;DHT22;17702;47.590;7.666;2023-06-26T01:21:42;20.20;99.30
31038;DHT22;17702;47.590;7.666;2023-06-26T01:24:16;20.20;99.30
31038;DHT22;17702;47.590;7.666;2023-06-26T01:26:47;20.20;99.40
31038;DHT22;17702;47.590;7.666;2023-06-26T01:29:15;20.20;99.90
31038;DHT22;17702;47.590;7.666;2023-06-26T01:31:42;20.10;99.70
31038;DHT22;17702;47.590;7.666;2023-06-26T01:34:09;20.10;99.90
31038;DHT22;17702;47.590;7.666;2023-06-26T01:36:35;20.10;99.70
31038;DHT22;17702;47.590;7.666;2023-06-26T01:39:02;20.00;99.60
31038;DHT22;17702;47.590;7.666;2023-06-26T01:41:28;20.10;99.60
31038;DHT22;17702;47.590;7.666;2023-06-26T01:46:25;20.00;99.90
31038;DHT22;17702;47.590;7.666;2023-06-26T01:48:55;19.90;99.90
31038;DHT22;17702;47.590;7.666;2023-06-26T01:51:30;19.90;99.90
31038;DHT22;17702;47.590;7.666;2023-06-26T01:53:57;19.80;99.90
31038;DHT22;17702;47.590;7.666;2023-06-26T01:56:24;19.80;99.90
31038;DHT22;17702;47.590;7.666;2023-06-26T01:58:50;19.80;99.90
31038;DHT22;17702;47.590;7.666;2023-06-26T02:01:20;19.80;99.90
31038;DHT22;17702;47.590;7.666;2023-06-26T02:03:46;19.80;99.90
31038;DHT22;17702;47.590;7.666;2023-06-26T02:06:11;19.80;99.90
31038;DHT22;17702;47.590;7.666;2023-06-26T02:08:37;19.80;99.90
31038;DHT22;17702;47.590;7.666;2023-06-26T02:11:02;19.70;99.90
31038;DHT22;17702;47.590;7.666;2023-06-26T02:13:28;19.60;99.90
31038;DHT22;17702;47.590;7.666;2023-06-26T02:15:53;19.50;99.90
31038;DHT22;17702;47.590;7.666;2023-06-26T02:18:19;19.60;99.90
31038;DHT22;17702;47.590;7.666;2023-06-26T02:20:48;19.60;99.90
31038;DHT22;17702;47.590;7.666;2023-06-26T02:23:13;19.60;99.90
31038;DHT22;17702;47.590;7.666;2023-06-26T02:25:39;19.60;99.90
31038;DHT22;17702;47.590;7.666;2023-06-26T02:28:05;19.60;99.90
31038;DHT22;17702;47.590;7.666;2023-06-26T02:30:30;19.60;99.90
31038;DHT22;17702;47.590;7.666;2023-06-26T02:32:56;19.60;99.90
31038;DHT22;17702;47.590;7.666;2023-06-26T02:35:21;19.50;99.90
31038;DHT22;17702;47.590;7.666;2023-06-26T02:37:47;19.50;99.90
31038;DHT22;17702;47.590;7.666;2023-06-26T02:40:13;19.50;99.90
31038;DHT22;17702;47.590;7.666;2023-06-26T02:42:38;19.50;99.90
31038;DHT22;17702;47.590;7.666;2023-06-26T02:45:04;19.40;99.90
31038;DHT22;17702;47.590;7.666;2023-06-26T02:47:30;19.40;99.90
31038;DHT22;17702;47.590;7.666;2023-06-26T02:49:56;19.40;99.90
31038;DHT22;17702;47.590;7.666;2023-06-26T02:52:21;19.40;99.90
31038;DHT22;17702;47.590;7.666;2023-06-26T02:54:47;19.40;99.90
31038;DHT22;17702;47.590;7.666;2023-06-26T02:57:12;19.40;99.90
31038;DHT22;17702;47.590;7.666;2023-06-26T02:59:40;19.40;99.90
31038;DHT22;17702;47.590;7.666;2023-06-26T03:02:06;19.40;99.90
31038;DHT22;17702;47.590;7.666;2023-06-26T03:04:31;19.30;99.90
31038;DHT22;17702;47.590;7.666;2023-06-26T03:06:57;19.30;99.90
31038;DHT22;17702;47.590;7.666;2023-06-26T03:09:23;19.30;99.90
31038;DHT22;17702;47.590;7.666;2023-06-26T03:11:48;19.30;99.90
31038;DHT22;17702;47.590;7.666;2023-06-26T03:14:14;19.30;99.90
31038;DHT22;17702;47.590;7.666;2023-06-26T03:16:40;19.30;99.90
31038;DHT22;17702;47.590;7.666;2023-06-26T03:19:06;19.30;99.90
31038;DHT22;17702;47.590;7.666;2023-06-26T03:21:32;19.20;99.90
31038;DHT22;17702;47.590;7.666;2023-06-26T03:23:58;19.30;99.90
31038;DHT22;17702;47.590;7.666;2023-06-26T03:26:23;19.30;99.90
31038;DHT22;17702;47.590;7.666;2023-06-26T03:28:53;19.30;99.90
31038;DHT22;17702;47.590;7.666;2023-06-26T03:31:19;19.20;99.90
31038;DHT22;17702;47.590;7.666;2023-06-26T03:33:44;19.20;99.90
31038;DHT22;17702;47.590;7.666;2023-06-26T03:36:10;19.10;99.90
31038;DHT22;17702;47.590;7.666;2023-06-26T03:38:36;19.10;99.90
31038;DHT22;17702;47.590;7.666;2023-06-26T03:41:02;19.10;99.90
31038;DHT22;17702;47.590;7.666;2023-06-26T03:43:27;19.10;99.90
31038;DHT22;17702;47.590;7.666;2023-06-26T03:45:53;19.10;99.90
31038;DHT22;17702;47.590;7.666;2023-06-26T03:48:19;19.00;99.90
31038;DHT22;17702;47.590;7.666;2023-06-26T03:50:45;19.10;99.90
31038;DHT22;17702;47.590;7.666;2023-06-26T03:53:10;19.10;99.90
31038;DHT22;17702;47.590;7.666;2023-06-26T03:55:37;19.10;99.90
31038;DHT22;17702;47.590;7.666;2023-06-26T03:58:04;19.10;99.90
31038;DHT22;17702;47.590;7.666;2023-06-26T04:00:30;19.00;99.90
31038;DHT22;17702;47.590;7.666;2023-06-26T04:02:55;19.00;99.90
31038;DHT22;17702;47.590;7.666;2023-06-26T04:05:21;19.00;99.90
31038;DHT22;17702;47.590;7.666;2023-06-26T04:07:52;19.10;99.90
31038;DHT22;17702;47.590;7.666;2023-06-26T04:10:18;19.20;99.90
31038;DHT22;17702;47.590;7.666;2023-06-26T04:12:46;19.10;99.90
31038;DHT22;17702;47.590;7.666;2023-06-26T04:15:11;19.10;99.90
31038;DHT22;17702;47.590;7.666;2023-06-26T04:17:37;19.10;99.90
31038;DHT22;17702;47.590;7.666;2023-06-26T04:20:03;19.10;99.90
31038;DHT22;17702;47.590;7.666;2023-06-26T04:22:32;19.20;99.90
31038;DHT22;17702;47.590;7.666;2023-06-26T04:24:57;19.20;99.90
31038;DHT22;17702;47.590;7.666;2023-06-26T04:27:23;19.20;99.90
31038;DHT22;17702;47.590;7.666;2023-06-26T04:29:49;19.20;99.90
31038;DHT22;17702;47.590;7.666;2023-06-26T04:32:14;19.20;99.90
31038;DHT22;17702;47.590;7.666;2023-06-26T04:34:40;19.20;99.90
31038;DHT22;17702;47.590;7.666;2023-06-26T04:37:08;19.20;99.90
31038;DHT22;17702;47.590;7.666;2023-06-26T04:39:35;19.20;99.90
31038;DHT22;17702;47.590;7.666;2023-06-26T04:42:03;19.30;99.90
31038;DHT22;17702;47.590;7.666;2023-06-26T04:44:28;19.40;99.90
31038;DHT22;17702;47.590;7.666;2023-06-26T04:46:54;19.30;99.90
31038;DHT22;17702;47.590;7.666;2023-06-26T04:49:19;19.40;99.90
31038;DHT22;17702;47.590;7.666;2023-06-26T04:51:45;19.40;99.90
31038;DHT22;17702;47.590;7.666;2023-06-26T04:54:11;19.40;99.90
31038;DHT22;17702;47.590;7.666;2023-06-26T04:56:37;19.50;99.90
31038;DHT22;17702;47.590;7.666;2023-06-26T04:59:05;19.50;99.90
31038;DHT22;17702;47.590;7.666;2023-06-26T05:01:31;19.50;99.90
31038;DHT22;17702;47.590;7.666;2023-06-26T05:03:58;19.60;99.90
31038;DHT22;17702;47.590;7.666;2023-06-26T05:06:23;19.60;99.90
31038;DHT22;17702;47.590;7.666;2023-06-26T05:08:49;19.60;99.90
31038;DHT22;17702;47.590;7.666;2023-06-26T05:11:15;19.60;99.90
31038;DHT22;17702;47.590;7.666;2023-06-26T05:13:41;19.70;99.90
31038;DHT22;17702;47.590;7.666;2023-06-26T05:16:08;19.80;99.90
31038;DHT22;17702;47.590;7.666;2023-06-26T05:18:34;19.90;99.90
31038;DHT22;17702;47.590;7.666;2023-06-26T05:21:00;20.00;99.90
31038;DHT22;17702;47.590;7.666;2023-06-26T05:23:27;20.10;99.90
31038;DHT22;17702;47.590;7.666;2023-06-26T05:25:55;20.10;99.90
31038;DHT22;17702;47.590;7.666;2023-06-26T05:28:22;20.20;99.90
31038;DHT22;17702;47.590;7.666;2023-06-26T05:30:52;20.30;99.90
31038;DHT22;17702;47.590;7.666;2023-06-26T05:33:18;20.40;99.90
31038;DHT22;17702;47.590;7.666;2023-06-26T05:35:48;20.50;99.90
31038;DHT22;17702;47.590;7.666;2023-06-26T05:38:14;20.50;99.90
31038;DHT22;17702;47.590;7.666;2023-06-26T05:40:40;20.60;99.90
31038;DHT22;17702;47.590;7.666;2023-06-26T05:43:06;20.70;99.90
31038;DHT22;17702;47.590;7.666;2023-06-26T05:45:32;20.80;99.90
31038;DHT22;17702;47.590;7.666;2023-06-26T05:47:59;20.80;99.90
31038;DHT22;17702;47.590;7.666;2023-06-26T05:50:25;20.90;99.90
31038;DHT22;17702;47.590;7.666;2023-06-26T05:52:51;21.00;99.90
31038;DHT22;17702;47.590;7.666;2023-06-26T05:55:17;21.10;99.90
31038;DHT22;17702;47.590;7.666;2023-06-26T05:57:43;21.20;99.90
31038;DHT22;17702;47.590;7.666;2023-06-26T06:00:11;21.30;99.90
31038;DHT22;17702;47.590;7.666;2023-06-26T06:02:37;21.40;99.90
31038;DHT22;17702;47.590;7.666;2023-06-26T06:05:03;21.50;99.90
31038;DHT22;17702;47.590;7.666;2023-06-26T06:07:30;21.50;99.90
31038;DHT22;17702;47.590;7.666;2023-06-26T06:09:56;21.60;99.90
31038;DHT22;17702;47.590;7.666;2023-06-26T06:12:22;21.70;99.90
31038;DHT22;17702;47.590;7.666;2023-06-26T06:14:47;21.80;99.90
31038;DHT22;17702;47.590;7.666;2023-06-26T06:17:13;21.80;99.90
31038;DHT22;17702;47.590;7.666;2023-06-26T06:19:38;21.90;99.90
31038;DHT22;17702;47.590;7.666;2023-06-26T06:22:04;22.00;99.90
31038;DHT22;17702;47.590;7.666;2023-06-26T06:24:29;22.10;99.90
31038;DHT22;17702;47.590;7.666;2023-06-26T06:26:55;22.20;99.90
31038;DHT22;17702;47.590;7.666;2023-06-26T06:29:21;22.30;99.90
31038;DHT22;17702;47.590;7.666;2023-06-26T06:31:46;22.40;99.90
31038;DHT22;17702;47.590;7.666;2023-06-26T06:34:12;22.50;99.90
31038;DHT22;17702;47.590;7.666;2023-06-26T06:36:38;22.60;99.90
31038;DHT22;17702;47.590;7.666;2023-06-26T06:39:04;22.70;99.90
31038;DHT22;17702;47.590;7.666;2023-06-26T06:41:29;22.80;99.90
31038;DHT22;17702;47.590;7.666;2023-06-26T06:43:55;22.90;99.90
31038;DHT22;17702;47.590;7.666;2023-06-26T06:46:20;23.00;99.90
31038;DHT22;17702;47.590;7.666;2023-06-26T06:48:46;23.20;99.90
31038;DHT22;17702;47.590;7.666;2023-06-26T06:51:12;23.20;99.90
31038;DHT22;17702;47.590;7.666;2023-06-26T06:53:38;23.40;99.90
31038;DHT22;17702;47.590;7.666;2023-06-26T06:56:04;23.50;99.90
31038;DHT22;17702;47.590;7.666;2023-06-26T06:58:29;23.70;99.90
31038;DHT22;17702;47.590;7.666;2023-06-26T07:00:59;23.80;99.80
31038;DHT22;17702;47.590;7.666;2023-06-26T07:03:24;23.90;99.90
31038;DHT22;17702;47.590;7.666;2023-06-26T07:05:50;24.00;99.60
31038;DHT22;17702;47.590;7.666;2023-06-26T07:08:16;24.20;99.90
31038;DHT22;17702;47.590;7.666;2023-06-26T07:10:41;24.30;99.60
31038;DHT22;17702;47.590;7.666;2023-06-26T07:13:07;24.40;99.40
31038;DHT22;17702;47.590;7.666;2023-06-26T07:15:32;24.60;99.00
31038;DHT22;17702;47.590;7.666;2023-06-26T07:17:58;24.60;98.40
31038;DHT22;17702;47.590;7.666;2023-06-26T07:20:24;24.80;96.20
31038;DHT22;17702;47.590;7.666;2023-06-26T07:22:50;24.80;93.60
31038;DHT22;17702;47.590;7.666;2023-06-26T07:25:16;24.90;90.30
31038;DHT22;17702;47.590;7.666;2023-06-26T07:27:41;24.90;90.10
31038;DHT22;17702;47.590;7.666;2023-06-26T07:30:08;25.10;89.20
31038;DHT22;17702;47.590;7.666;2023-06-26T07:32:35;25.20;90.40
31038;DHT22;17702;47.590;7.666;2023-06-26T07:35:00;25.20;90.20
31038;DHT22;17702;47.590;7.666;2023-06-26T07:37:26;25.20;88.90
31038;DHT22;17702;47.590;7.666;2023-06-26T07:39:52;25.20;87.20
31038;DHT22;17702;47.590;7.666;2023-06-26T07:42:17;25.20;91.90
31038;DHT22;17702;47.590;7.666;2023-06-26T07:44:43;25.30;90.70
31038;DHT22;17702;47.590;7.666;2023-06-26T07:47:09;25.30;88.50
31038;DHT22;17702;47.590;7.666;2023-06-26T07:49:35;25.40;90.90
31038;DHT22;17702;47.590;7.666;2023-06-26T07:52:00;25.50;92.30
31038;DHT22;17702;47.590;7.666;2023-06-26T07:54:26;25.60;90.10
31038;DHT22;17702;47.590;7.666;2023-06-26T07:57:02;25.70;87.60
31038;DHT22;17702;47.590;7.666;2023-06-26T07:59:29;25.90;87.70
31038;DHT22;17702;47.590;7.666;2023-06-26T08:01:57;26.10;89.70
31038;DHT22;17702;47.590;7.666;2023-06-26T08:04:24;26.20;84.20
31038;DHT22;17702;47.590;7.666;2023-06-26T08:06:53;26.30;84.50
31038;DHT22;17702;47.590;7.666;2023-06-26T08:09:21;26.50;89.50
31038;DHT22;17702;47.590;7.666;2023-06-26T08:11:47;26.70;88.10
31038;DHT22;17702;47.590;7.666;2023-06-26T08:14:13;26.80;83.00
31038;DHT22;17702;47.590;7.666;2023-06-26T08:16:42;26.80;81.70
31038;DHT22;17702;47.590;7.666;2023-06-26T08:19:09;26.90;83.10
31038;DHT22;17702;47.590;7.666;2023-06-26T08:21:35;27.00;83.80
31038;DHT22;17702;47.590;7.666;2023-06-26T08:24:01;27.10;80.60
31038;DHT22;17702;47.590;7.666;2023-06-26T08:26:26;27.20;80.10
31038;DHT22;17702;47.590;7.666;2023-06-26T08:28:52;27.30;81.10
31038;DHT22;17702;47.590;7.666;2023-06-26T08:31:17;27.40;80.50
31038;DHT22;17702;47.590;7.666;2023-06-26T08:33:43;27.50;83.30
31038;DHT22;17702;47.590;7.666;2023-06-26T08:36:09;27.70;84.80
31038;DHT22;17702;47.590;7.666;2023-06-26T08:38:34;27.90;83.40
31038;DHT22;17702;47.590;7.666;2023-06-26T08:41:00;28.00;80.30
31038;DHT22;17702;47.590;7.666;2023-06-26T08:43:26;28.00;76.00
31038;DHT22;17702;47.590;7.666;2023-06-26T08:45:52;28.10;77.70
31038;DHT22;17702;47.590;7.666;2023-06-26T08:48:18;28.10;74.40
31038;DHT22;17702;47.590;7.666;2023-06-26T08:50:48;28.10;72.70
31038;DHT22;17702;47.590;7.666;2023-06-26T08:53:36;28.00;75.00
31038;DHT22;17702;47.590;7.666;2023-06-26T08:56:07;28.00;80.20
31038;DHT22;17702;47.590;7.666;2023-06-26T08:58:34;28.20;78.30
31038;DHT22;17702;47.590;7.666;2023-06-26T09:01:02;28.30;76.20
31038;DHT22;17702;47.590;7.666;2023-06-26T09:03:29;28.40;75.40
31038;DHT22;17702;47.590;7.666;2023-06-26T09:05:55;28.60;76.00
31038;DHT22;17702;47.590;7.666;2023-06-26T09:08:21;28.70;76.80
31038;DHT22;17702;47.590;7.666;2023-06-26T09:10:47;28.70;71.90
31038;DHT22;17702;47.590;7.666;2023-06-26T09:13:12;28.70;73.50
31038;DHT22;17702;47.590;7.666;2023-06-26T09:15:41;28.80;75.00
31038;DHT22;17702;47.590;7.666;2023-06-26T09:18:07;28.80;73.80
31038;DHT22;17702;47.590;7.666;2023-06-26T09:20:33;29.00;73.70
31038;DHT22;17702;47.590;7.666;2023-06-26T09:23:00;29.00;70.80
31038;DHT22;17702;47.590;7.666;2023-06-26T09:25:26;29.00;72.40
31038;DHT22;17702;47.590;7.666;2023-06-26T09:27:52;29.10;73.40
31038;DHT22;17702;47.590;7.666;2023-06-26T09:30:18;29.20;70.90
31038;DHT22;17702;47.590;7.666;2023-06-26T09:32:45;29.30;68.20
31038;DHT22;17702;47.590;7.666;2023-06-26T09:35:11;29.30;69.00
31038;DHT22;17702;47.590;7.666;2023-06-26T09:37:37;29.50;69.50
31038;DHT22;17702;47.590;7.666;2023-06-26T09:40:03;29.50;69.80
31038;DHT22;17702;47.590;7.666;2023-06-26T09:42:30;29.60;68.20
31038;DHT22;17702;47.590;7.666;2023-06-26T09:44:56;29.60;67.00
31038;DHT22;17702;47.590;7.666;2023-06-26T09:47:22;29.60;68.50
31038;DHT22;17702;47.590;7.666;2023-06-26T09:49:47;29.70;68.00
31038;DHT22;17702;47.590;7.666;2023-06-26T09:52:15;29.80;70.50
31038;DHT22;17702;47.590;7.666;2023-06-26T09:54:44;29.90;68.50
31038;DHT22;17702;47.590;7.666;2023-06-26T09:57:13;30.00;68.10
31038;DHT22;17702;47.590;7.666;2023-06-26T09:59:41;30.10;68.60
31038;DHT22;17702;47.590;7.666;2023-06-26T10:02:07;30.10;67.60
31038;DHT22;17702;47.590;7.666;2023-06-26T10:04:35;30.00;66.90
31038;DHT22;17702;47.590;7.666;2023-06-26T10:07:10;29.90;65.70
31038;DHT22;17702;47.590;7.666;2023-06-26T10:09:39;29.90;66.90
31038;DHT22;17702;47.590;7.666;2023-06-26T10:12:06;30.10;67.60
31038;DHT22;17702;47.590;7.666;2023-06-26T10:14:35;30.00;65.70
31038;DHT22;17702;47.590;7.666;2023-06-26T10:17:11;29.90;65.30
31038;DHT22;17702;47.590;7.666;2023-06-26T10:19:40;29.60;65.70
31038;DHT22;17702;47.590;7.666;2023-06-26T10:22:07;29.40;67.40
31038;DHT22;17702;47.590;7.666;2023-06-26T10:24:35;29.20;66.20
31038;DHT22;17702;47.590;7.666;2023-06-26T10:27:23;28.90;66.80
31038;DHT22;17702;47.590;7.666;2023-06-26T10:29:53;28.70;70.00
31038;DHT22;17702;47.590;7.666;2023-06-26T10:32:21;28.60;69.40
31038;DHT22;17702;47.590;7.666;2023-06-26T10:34:49;28.50;68.20
31038;DHT22;17702;47.590;7.666;2023-06-26T10:37:15;28.40;68.10
31038;DHT22;17702;47.590;7.666;2023-06-26T10:39:51;28.30;67.80
31038;DHT22;17702;47.590;7.666;2023-06-26T10:42:20;28.30;69.20
31038;DHT22;17702;47.590;7.666;2023-06-26T10:44:53;28.30;69.50
31038;DHT22;17702;47.590;7.666;2023-06-26T10:49:56;28.10;71.10
31038;DHT22;17702;47.590;7.666;2023-06-26T10:52:21;28.00;69.00
31038;DHT22;17702;47.590;7.666;2023-06-26T10:54:48;27.80;68.20
31038;DHT22;17702;47.590;7.666;2023-06-26T10:57:23;27.80;69.50
31038;DHT22;17702;47.590;7.666;2023-06-26T11:00:08;27.70;69.80
31038;DHT22;17702;47.590;7.666;2023-06-26T11:02:51;27.70;72.30
31038;DHT22;17702;47.590;7.666;2023-06-26T11:05:27;27.60;71.50
31038;DHT22;17702;47.590;7.666;2023-06-26T11:08:06;27.60;73.80
31038;DHT22;17702;47.590;7.666;2023-06-26T11:10:51;27.60;72.30
31038;DHT22;17702;47.590;7.666;2023-06-26T11:13:19;27.60;74.60
31038;DHT22;17702;47.590;7.666;2023-06-26T11:15:48;27.60;71.40
31038;DHT22;17702;47.590;7.666;2023-06-26T11:18:14;27.50;72.20
31038;DHT22;17702;47.590;7.666;2023-06-26T11:20:40;27.60;72.30
31038;DHT22;17702;47.590;7.666;2023-06-26T11:23:08;27.50;70.70
31038;DHT22;17702;47.590;7.666;2023-06-26T11:25:35;27.40;70.80
31038;DHT22;17702;47.590;7.666;2023-06-26T11:28:02;27.30;71.50
31038;DHT22;17702;47.590;7.666;2023-06-26T11:30:28;27.30;72.40
31038;DHT22;17702;47.590;7.666;2023-06-26T11:33:02;27.30;74.50
31038;DHT22;17702;47.590;7.666;2023-06-26T11:35:28;27.30;76.40
31038;DHT22;17702;47.590;7.666;2023-06-26T11:37:57;27.30;73.70
31038;DHT22;17702;47.590;7.666;2023-06-26T11:40:26;27.40;72.50
31038;DHT22;17702;47.590;7.666;2023-06-26T11:42:55;27.40;73.90
31038;DHT22;17702;47.590;7.666;2023-06-26T11:45:20;27.40;72.20
31038;DHT22;17702;47.590;7.666;2023-06-26T11:47:46;27.40;72.60
31038;DHT22;17702;47.590;7.666;2023-06-26T11:50:15;27.30;74.00
31038;DHT22;17702;47.590;7.666;2023-06-26T11:52:45;27.30;76.40
31038;DHT22;17702;47.590;7.666;2023-06-26T11:55:11;27.30;73.50
31038;DHT22;17702;47.590;7.666;2023-06-26T11:57:37;27.30;74.40
31038;DHT22;17702;47.590;7.666;2023-06-26T12:00:15;27.40;76.30
31038;DHT22;17702;47.590;7.666;2023-06-26T12:02:45;27.50;74.30
31038;DHT22;17702;47.590;7.666;2023-06-26T12:05:12;27.80;75.30
31038;DHT22;17702;47.590;7.666;2023-06-26T12:07:40;28.10;70.40
31038;DHT22;17702;47.590;7.666;2023-06-26T12:10:07;28.40;70.20
31038;DHT22;17702;47.590;7.666;2023-06-26T12:12:33;28.60;70.90
31038;DHT22;17702;47.590;7.666;2023-06-26T12:14:59;28.80;70.00
31038;DHT22;17702;47.590;7.666;2023-06-26T12:17:25;29.00;66.60
31038;DHT22;17702;47.590;7.666;2023-06-26T12:19:51;29.10;65.20
31038;DHT22;17702;47.590;7.666;2023-06-26T12:22:17;29.20;65.20
31038;DHT22;17702;47.590;7.666;2023-06-26T12:24:44;29.30;69.00
31038;DHT22;17702;47.590;7.666;2023-06-26T12:27:12;29.50;67.00
31038;DHT22;17702;47.590;7.666;2023-06-26T12:29:39;29.60;64.80
31038;DHT22;17702;47.590;7.666;2023-06-26T12:32:08;29.70;64.40
31038;DHT22;17702;47.590;7.666;2023-06-26T12:34:36;29.70;63.80
31038;DHT22;17702;47.590;7.666;2023-06-26T12:37:07;29.70;64.50
31038;DHT22;17702;47.590;7.666;2023-06-26T12:39:53;29.80;65.20
31038;DHT22;17702;47.590;7.666;2023-06-26T12:42:21;29.80;62.30
31038;DHT22;17702;47.590;7.666;2023-06-26T12:44:47;29.90;64.80
31038;DHT22;17702;47.590;7.666;2023-06-26T12:47:19;29.80;63.30
31038;DHT22;17702;47.590;7.666;2023-06-26T12:49:51;29.90;63.80
31038;DHT22;17702;47.590;7.666;2023-06-26T12:52:17;30.00;60.80
31038;DHT22;17702;47.590;7.666;2023-06-26T12:54:46;30.00;60.30
31038;DHT22;17702;47.590;7.666;2023-06-26T12:57:12;30.00;62.30
31038;DHT22;17702;47.590;7.666;2023-06-26T12:59:40;30.00;63.10
31038;DHT22;17702;47.590;7.666;2023-06-26T13:02:06;30.10;61.30
31038;DHT22;17702;47.590;7.666;2023-06-26T13:04:32;30.10;62.50
31038;DHT22;17702;47.590;7.666;2023-06-26T13:06:58;30.10;60.70
31038;DHT22;17702;47.590;7.666;2023-06-26T13:09:24;30.10;60.70
31038;DHT22;17702;47.590;7.666;2023-06-26T13:11:51;30.20;58.80
31038;DHT22;17702;47.590;7.666;2023-06-26T13:14:17;30.10;58.80
31038;DHT22;17702;47.590;7.666;2023-06-26T13:16:42;30.20;58.50
31038;DHT22;17702;47.590;7.666;2023-06-26T13:19:08;30.10;57.00
31038;DHT22;17702;47.590;7.666;2023-06-26T13:21:34;30.00;58.50
31038;DHT22;17702;47.590;7.666;2023-06-26T13:24:00;30.00;59.70
31038;DHT22;17702;47.590;7.666;2023-06-26T13:26:26;30.00;59.40
31038;DHT22;17702;47.590;7.666;2023-06-26T13:28:54;30.00;59.70
31038;DHT22;17702;47.590;7.666;2023-06-26T13:31:20;30.10;59.60
31038;DHT22;17702;47.590;7.666;2023-06-26T13:33:46;30.10;58.80
31038;DHT22;17702;47.590;7.666;2023-06-26T13:36:14;30.10;56.90
31038;DHT22;17702;47.590;7.666;2023-06-26T13:38:39;30.00;56.80
31038;DHT22;17702;47.590;7.666;2023-06-26T13:41:05;30.00;56.40
31038;DHT22;17702;47.590;7.666;2023-06-26T13:43:31;30.00;58.70
31038;DHT22;17702;47.590;7.666;2023-06-26T13:45:56;30.00;58.90
31038;DHT22;17702;47.590;7.666;2023-06-26T13:48:22;30.00;57.90
31038;DHT22;17702;47.590;7.666;2023-06-26T13:50:50;30.10;57.20
31038;DHT22;17702;47.590;7.666;2023-06-26T13:53:16;30.10;56.50
31038;DHT22;17702;47.590;7.666;2023-06-26T13:55:42;30.00;57.40
31038;DHT22;17702;47.590;7.666;2023-06-26T13:58:08;30.00;57.90
31038;DHT22;17702;47.590;7.666;2023-06-26T14:00:35;30.00;57.50
31038;DHT22;17702;47.590;7.666;2023-06-26T14:03:02;29.90;59.90
31038;DHT22;17702;47.590;7.666;2023-06-26T14:05:29;29.90;57.70
31038;DHT22;17702;47.590;7.666;2023-06-26T14:07:55;29.90;56.80
31038;DHT22;17702;47.590;7.666;2023-06-26T14:10:23;29.90;57.50
31038;DHT22;17702;47.590;7.666;2023-06-26T14:12:49;29.90;56.90
31038;DHT22;17702;47.590;7.666;2023-06-26T14:15:15;30.00;56.40
31038;DHT22;17702;47.590;7.666;2023-06-26T14:17:41;29.90;56.40
31038;DHT22;17702;47.590;7.666;2023-06-26T14:20:10;29.80;57.80
31038;DHT22;17702;47.590;7.666;2023-06-26T14:22:42;29.80;57.40
31038;DHT22;17702;47.590;7.666;2023-06-26T14:25:08;29.80;56.40
31038;DHT22;17702;47.590;7.666;2023-06-26T14:27:35;29.70;57.70
31038;DHT22;17702;47.590;7.666;2023-06-26T14:30:03;29.70;57.90
31038;DHT22;17702;47.590;7.666;2023-06-26T14:32:29;29.60;59.00
31038;DHT22;17702;47.590;7.666;2023-06-26T14:34:55;29.60;56.80
31038;DHT22;17702;47.590;7.666;2023-06-26T14:37:21;29.50;60.00
31038;DHT22;17702;47.590;7.666;2023-06-26T14:39:46;29.50;58.90
31038;DHT22;17702;47.590;7.666;2023-06-26T14:42:12;29.40;59.20
31038;DHT22;17702;47.590;7.666;2023-06-26T14:44:38;29.40;57.80
31038;DHT22;17702;47.590;7.666;2023-06-26T14:47:03;29.40;60.30
31038;DHT22;17702;47.590;7.666;2023-06-26T14:49:30;29.30;57.10
31038;DHT22;17702;47.590;7.666;2023-06-26T14:51:55;29.30;57.90
31038;DHT22;17702;47.590;7.666;2023-06-26T14:54:21;29.20;57.20
31038;DHT22;17702;47.590;7.666;2023-06-26T14:56:46;29.20;58.40
31038;DHT22;17702;47.590;7.666;2023-06-26T14:59:12;29.20;57.70
31038;DHT22;17702;47.590;7.666;2023-06-26T15:01:38;29.20;56.60
31038;DHT22;17702;47.590;7.666;2023-06-26T15:04:07;29.20;56.50
31038;DHT22;17702;47.590;7.666;2023-06-26T15:06:34;29.10;56.30
31038;DHT22;17702;47.590;7.666;2023-06-26T15:08:59;29.10;57.10
31038;DHT22;17702;47.590;7.666;2023-06-26T15:11:26;29.10;58.20
31038;DHT22;17702;47.590;7.666;2023-06-26T15:13:52;29.10;56.60
31038;DHT22;17702;47.590;7.666;2023-06-26T15:16:17;29.10;56.80
31038;DHT22;17702;47.590;7.666;2023-06-26T15:18:43;29.10;57.70
31038;DHT22;17702;47.590;7.666;2023-06-26T15:21:09;29.10;56.70
31038;DHT22;17702;47.590;7.666;2023-06-26T15:23:35;29.10;56.90
31038;DHT22;17702;47.590;7.666;2023-06-26T15:26:00;29.00;56.10
31038;DHT22;17702;47.590;7.666;2023-06-26T15:28:26;28.90;55.40
31038;DHT22;17702;47.590;7.666;2023-06-26T15:30:52;28.80;55.60
31038;DHT22;17702;47.590;7.666;2023-06-26T15:33:17;28.70;55.50